createdAt,value
2022-12-31T00:00:13.122Z,17.46
2022-12-31T00:05:15.473Z,17.46
2022-12-31T00:10:17.850Z,17.46
2022-12-31T00:15:19.978Z,17.46
2022-12-31T00:20:22.196Z,17.48
2022-12-31T00:25:24.498Z,17.48
2022-12-31T00:30:26.739Z,17.50
2022-12-31T00:35:29.035Z,17.47
2022-12-31T00:40:31.174Z,17.46
2022-12-31T00:45:33.329Z,17.46
2022-12-31T00:50:35.476Z,17.46
2022-12-31T00:55:37.703Z,17.45
2022-12-31T01:00:40.238Z,17.44
2022-12-31T01:05:42.408Z,17.45
2022-12-31T01:11:10.435Z,17.46
2022-12-31T01:16:13.405Z,17.41
2022-12-31T01:21:16.235Z,17.47
2022-12-31T01:26:19.556Z,17.47
2022-12-31T01:31:22.960Z,17.48
2022-12-31T01:36:27.990Z,17.45
2022-12-31T01:41:33.950Z,17.44
2022-12-31T01:46:41.918Z,17.43
2022-12-31T01:51:50.030Z,17.42
2022-12-31T01:56:54.338Z,17.43
2022-12-31T02:01:56.923Z,17.42
2022-12-31T02:07:05.662Z,17.43
2022-12-31T02:12:09.769Z,17.44
2022-12-31T02:17:30.265Z,17.43
2022-12-31T02:22:47.402Z,17.45
2022-12-31T02:28:01.941Z,17.43
2022-12-31T02:33:09.719Z,17.42
2022-12-31T02:38:18.555Z,17.40
2022-12-31T02:43:20.916Z,17.42
2022-12-31T02:48:31.075Z,17.40
2022-12-31T02:53:33.283Z,17.42
2022-12-31T02:59:18.078Z,17.42
2022-12-31T03:04:34.326Z,17.43
2022-12-31T03:09:37.314Z,17.43
2022-12-31T03:14:39.537Z,17.40
2022-12-31T03:20:00.602Z,17.42
2022-12-31T03:25:27.333Z,17.40
2022-12-31T03:30:30.966Z,17.40
2022-12-31T03:35:35.656Z,17.39
2022-12-31T03:40:41.236Z,17.43
2022-12-31T03:45:43.432Z,17.43
2022-12-31T03:50:45.580Z,17.41
2022-12-31T03:55:52.659Z,17.39
2022-12-31T04:00:54.954Z,17.41
2022-12-31T04:05:57.256Z,17.40
2022-12-31T04:10:59.435Z,17.40
2022-12-31T04:16:01.634Z,17.42
2022-12-31T04:21:05.533Z,17.43
2022-12-31T04:26:07.520Z,17.38
2022-12-31T04:31:11.543Z,17.39
2022-12-31T04:36:13.738Z,17.39
2022-12-31T04:41:19.119Z,17.39
2022-12-31T04:46:24.747Z,17.38
2022-12-31T04:51:28.183Z,17.39
2022-12-31T04:56:31.173Z,17.38
2022-12-31T05:01:33.620Z,17.39
2022-12-31T05:06:35.895Z,17.39
2022-12-31T05:11:38.383Z,17.39
2022-12-31T05:16:40.636Z,17.40
2022-12-31T05:21:42.792Z,17.38
2022-12-31T05:26:44.924Z,17.39
2022-12-31T05:31:47.208Z,17.39
2022-12-31T05:36:49.356Z,17.39
2022-12-31T05:41:51.496Z,17.40
2022-12-31T05:46:53.699Z,17.35
2022-12-31T05:51:55.863Z,17.34
2022-12-31T05:56:58.099Z,17.39
2022-12-31T06:02:00.628Z,17.38
2022-12-31T06:07:02.835Z,17.38
2022-12-31T06:12:05.824Z,17.40
2022-12-31T06:17:08.764Z,17.41
2022-12-31T06:22:11.017Z,17.39
2022-12-31T06:27:13.222Z,17.38
2022-12-31T06:32:16.235Z,17.37
2022-12-31T06:37:18.377Z,17.37
2022-12-31T06:42:20.558Z,17.37
2022-12-31T06:47:22.746Z,17.37
2022-12-31T06:52:24.874Z,17.35
2022-12-31T06:57:27.557Z,17.38
2022-12-31T07:02:44.344Z,17.37
2022-12-31T07:07:55.484Z,17.35
2022-12-31T07:13:12.482Z,17.36
2022-12-31T07:18:37.421Z,17.35
2022-12-31T07:23:40.801Z,17.37
2022-12-31T07:28:46.027Z,17.37
2022-12-31T07:33:48.131Z,17.37
2022-12-31T07:38:52.867Z,17.36
2022-12-31T07:44:35.730Z,17.35
2022-12-31T07:49:43.527Z,17.35
2022-12-31T07:54:45.800Z,17.35
2022-12-31T07:59:53.151Z,17.35
2022-12-31T08:05:00.751Z,17.36
2022-12-31T08:10:14.028Z,17.36
2022-12-31T08:15:24.116Z,17.34
2022-12-31T08:20:31.832Z,17.34
2022-12-31T08:26:41.513Z,17.34
2022-12-31T08:31:52.408Z,17.36
2022-12-31T08:37:10.960Z,17.36
2022-12-31T08:42:37.330Z,17.34
2022-12-31T08:47:48.417Z,17.34
2022-12-31T08:52:50.851Z,17.29
2022-12-31T08:58:34.176Z,17.35
2022-12-31T09:04:08.532Z,17.37
2022-12-31T09:09:45.791Z,17.35
2022-12-31T09:15:00.862Z,17.33
2022-12-31T09:20:04.213Z,17.36
2022-12-31T09:25:06.829Z,17.35
2022-12-31T09:30:13.193Z,17.36
2022-12-31T09:35:38.862Z,17.34
2022-12-31T09:40:48.170Z,17.34
2022-12-31T09:46:05.196Z,17.34
2022-12-31T09:51:31.402Z,17.36
2022-12-31T09:56:41.298Z,17.38
2022-12-31T10:02:14.591Z,17.36
2022-12-31T10:07:52.368Z,17.33
2022-12-31T10:13:02.010Z,17.35
2022-12-31T10:18:33.370Z,17.35
2022-12-31T10:23:47.441Z,17.37
2022-12-31T10:29:00.158Z,17.36
2022-12-31T10:34:31.882Z,17.34
2022-12-31T10:39:45.689Z,17.35
2022-12-31T10:45:15.013Z,17.34
2022-12-31T10:50:40.979Z,17.39
2022-12-31T10:56:12.444Z,17.36
2022-12-31T11:01:40.089Z,17.35
2022-12-31T11:07:23.723Z,17.35
2022-12-31T11:12:57.838Z,17.35
2022-12-31T11:18:05.777Z,17.33
2022-12-31T11:23:13.666Z,17.37
2022-12-31T11:28:29.556Z,17.38
2022-12-31T11:33:50.009Z,17.37
2022-12-31T11:39:12.041Z,17.37
2022-12-31T11:44:26.046Z,17.36
2022-12-31T11:49:37.879Z,17.38
2022-12-31T11:54:57.470Z,17.38
2022-12-31T12:00:03.178Z,17.39
2022-12-31T12:05:17.446Z,17.41
2022-12-31T12:10:27.869Z,17.39
2022-12-31T12:15:35.849Z,17.40
2022-12-31T12:20:40.339Z,17.38
2022-12-31T12:25:44.719Z,17.38
2022-12-31T12:31:04.479Z,17.39
2022-12-31T12:36:12.369Z,17.39
2022-12-31T12:41:26.668Z,17.40
2022-12-31T12:46:47.791Z,17.41
2022-12-31T12:52:18.759Z,17.42
2022-12-31T12:57:43.211Z,17.41
2022-12-31T13:03:22.296Z,17.39
2022-12-31T13:08:49.011Z,17.41
2022-12-31T13:14:06.268Z,17.43
2022-12-31T13:19:31.314Z,17.44
2022-12-31T13:24:42.013Z,17.43
2022-12-31T13:29:46.360Z,17.43
2022-12-31T13:34:52.059Z,17.42
2022-12-31T13:40:17.947Z,17.44
2022-12-31T13:45:30.171Z,17.45
2022-12-31T13:50:39.840Z,17.47
2022-12-31T13:55:58.137Z,17.44
2022-12-31T14:01:44.054Z,17.44
2022-12-31T14:06:58.804Z,17.43
2022-12-31T14:12:27.450Z,17.45
2022-12-31T14:17:41.713Z,17.46
2022-12-31T14:23:03.034Z,17.38
2022-12-31T14:28:10.551Z,17.47
2022-12-31T14:33:39.943Z,17.46
2022-12-31T14:39:04.594Z,17.47
2022-12-31T14:44:45.176Z,17.45
2022-12-31T14:50:04.975Z,17.47
2022-12-31T14:55:10.053Z,17.48
2022-12-31T15:00:32.461Z,17.49
2022-12-31T15:05:38.737Z,17.50
2022-12-31T15:11:09.600Z,17.47
2022-12-31T15:16:43.683Z,17.47
2022-12-31T15:21:55.854Z,17.46
2022-12-31T15:27:01.836Z,17.50
2022-12-31T15:32:08.194Z,17.50
2022-12-31T15:37:34.049Z,17.48
2022-12-31T15:42:50.235Z,17.47
2022-12-31T15:47:58.780Z,17.49
2022-12-31T15:53:03.954Z,17.49
2022-12-31T15:58:11.695Z,17.50
2022-12-31T16:03:25.516Z,17.47
2022-12-31T16:08:31.843Z,17.49
2022-12-31T16:13:37.066Z,17.50
2022-12-31T16:18:41.829Z,17.51
2022-12-31T16:23:51.512Z,17.52
2022-12-31T16:29:00.227Z,17.50
2022-12-31T16:34:11.696Z,17.50
2022-12-31T16:39:26.591Z,17.50
2022-12-31T16:44:30.453Z,17.50
2022-12-31T16:49:33.643Z,17.49
2022-12-31T16:54:40.852Z,17.54
2022-12-31T16:59:47.737Z,17.53
2022-12-31T17:04:56.130Z,17.50
2022-12-31T17:10:16.051Z,17.50
2022-12-31T17:15:27.826Z,17.50
2022-12-31T17:20:33.067Z,17.52
2022-12-31T17:25:38.199Z,17.54
2022-12-31T17:30:40.885Z,17.53
2022-12-31T17:35:44.763Z,17.51
2022-12-31T17:40:52.796Z,17.49
2022-12-31T17:45:55.397Z,17.52
2022-12-31T17:51:00.188Z,17.55
2022-12-31T17:56:06.650Z,17.54
2022-12-31T18:01:10.333Z,17.54
2022-12-31T18:06:16.483Z,17.54
2022-12-31T18:11:22.465Z,17.53
2022-12-31T18:16:24.769Z,17.53
2022-12-31T18:21:32.836Z,17.54
2022-12-31T18:26:34.920Z,17.53
2022-12-31T18:31:37.394Z,17.51
2022-12-31T18:36:40.348Z,17.52
2022-12-31T18:41:51.405Z,17.54
2022-12-31T18:46:53.695Z,17.56
2022-12-31T18:51:57.338Z,17.55
2022-12-31T18:56:59.817Z,17.54
2022-12-31T19:02:02.044Z,17.53
2022-12-31T19:07:04.387Z,17.54
2022-12-31T19:12:06.745Z,17.55
2022-12-31T19:22:15.323Z,17.53
2022-12-31T19:27:17.570Z,17.52
2022-12-31T19:32:19.699Z,17.54
2022-12-31T19:37:21.881Z,17.55
2022-12-31T19:42:24.058Z,17.55
2022-12-31T19:47:26.233Z,17.53
2022-12-31T19:52:28.357Z,17.54
2022-12-31T19:57:30.589Z,17.54
2022-12-31T20:02:32.840Z,17.56
2022-12-31T20:07:35.196Z,17.57
2022-12-31T20:12:43.975Z,17.56
2022-12-31T20:17:46.634Z,17.53
2022-12-31T20:22:48.740Z,17.53
2022-12-31T20:27:56.178Z,17.53
2022-12-31T20:32:58.345Z,17.51
2022-12-31T20:38:00.519Z,17.52
2022-12-31T20:43:02.639Z,17.52
2022-12-31T20:48:04.873Z,17.52
2022-12-31T20:53:07.458Z,17.52
2022-12-31T20:58:09.587Z,17.52
2022-12-31T21:03:36.751Z,17.51
2022-12-31T21:08:35.162Z,17.53
2022-12-31T21:13:37.545Z,17.55
2022-12-31T21:18:39.672Z,17.54
2022-12-31T21:23:41.881Z,17.51
2022-12-31T21:28:44.266Z,17.53
2022-12-31T21:33:47.660Z,17.50
2022-12-31T21:38:49.819Z,17.52
2022-12-31T21:43:52.005Z,17.51
2022-12-31T21:48:56.014Z,17.54
2022-12-31T21:53:58.574Z,17.55
2022-12-31T21:59:19.202Z,17.55
2022-12-31T22:04:59.815Z,17.51
2022-12-31T22:09:43.619Z,17.49
2022-12-31T22:15:15.428Z,17.53
2022-12-31T22:20:26.247Z,17.55
2022-12-31T22:25:29.554Z,17.55
2022-12-31T22:30:32.478Z,17.54
2022-12-31T22:35:34.759Z,17.52
2022-12-31T22:40:36.971Z,17.52
2022-12-31T22:45:39.065Z,17.51
2022-12-31T22:50:41.169Z,17.53
2022-12-31T22:55:43.363Z,17.53
2022-12-31T23:00:45.918Z,17.53
2022-12-31T23:05:52.785Z,17.53
2022-12-31T23:11:01.334Z,17.51
2022-12-31T23:16:22.494Z,17.49
2022-12-31T23:21:42.990Z,17.50
2022-12-31T23:26:45.242Z,17.49
2022-12-31T23:31:47.467Z,17.51
2022-12-31T23:36:49.857Z,17.52
2022-12-31T23:41:52.243Z,17.53
2022-12-31T23:46:54.991Z,17.51
2022-12-31T23:51:57.223Z,17.50
2022-12-31T23:56:59.414Z,17.51
